Ironton, Louisiana
Current Conditions -  °F | °C
As of 4:30 PM on Thursday 30 Oct 2014 (Local Time) from K1B7 Reporting Station
Clear Clear  
Wind Chill: 70°   Ceiling: Unl
Heat Index: 70°   Visibility: 10mi
Dew Point: 52°   Wind: 9mph
Humidity: 53%   Direction: 40°NE
Pressure: 30.01"   Gusts: NA
Location:  29.4927°N, 89.8165°W
Report Text: K1B7 302130Z 04008KT 10SM SKC 21/11 A3001 RMK LAST
Loading
Personal Weather Stations






























Interactive Weather Map
Tropical Storm Tracking
New forecast layout! Learn more

10-Day Weather Forecast

Advertisements
Track Severe Weather on mobile